createdAt,value
2023-04-24T00:00:28.735Z,11.11
2023-04-24T00:01:28.941Z,11.12
2023-04-24T00:02:30.239Z,11.12
2023-04-24T00:03:29.527Z,11.11
2023-04-24T00:04:29.668Z,11.12
2023-04-24T00:05:28.795Z,11.11
2023-04-24T00:06:29.013Z,11.11
2023-04-24T00:07:29.220Z,11.08
2023-04-24T00:08:28.369Z,11.06
2023-04-24T00:09:28.652Z,11.06
2023-04-24T00:10:29.828Z,11.05
2023-04-24T00:11:30.019Z,11.03
2023-04-24T00:12:29.278Z,11.03
2023-04-24T00:13:29.515Z,11.01
2023-04-24T00:14:28.820Z,10.99
2023-04-24T00:15:29.062Z,10.99
2023-04-24T00:16:28.285Z,10.98
2023-04-24T00:17:29.490Z,10.93
2023-04-24T00:18:28.721Z,10.93
2023-04-24T00:19:28.927Z,10.93
2023-04-24T00:20:29.185Z,10.98
2023-04-24T00:21:28.358Z,10.98
2023-04-24T00:22:28.568Z,10.95
2023-04-24T00:23:28.799Z,10.95
2023-04-24T00:24:29.033Z,10.95
2023-04-24T00:25:28.207Z,10.98
2023-04-24T00:26:28.569Z,10.98
2023-04-24T00:27:28.667Z,10.98
2023-04-24T00:28:29.828Z,10.94
2023-04-24T00:29:28.060Z,10.91
2023-04-24T00:30:28.283Z,10.88
2023-04-24T00:31:28.515Z,10.88
2023-04-24T00:32:29.222Z,10.88
2023-04-24T00:33:28.916Z,10.88
2023-04-24T00:34:28.124Z,10.88
2023-04-24T00:35:28.327Z,10.91
2023-04-24T00:36:28.537Z,10.91
2023-04-24T00:37:29.724Z,10.93
2023-04-24T00:38:27.952Z,10.91
2023-04-24T00:39:29.095Z,10.94
2023-04-24T00:40:28.361Z,10.94
2023-04-24T00:41:29.538Z,10.93
2023-04-24T00:42:28.840Z,10.90
2023-04-24T00:43:28.043Z,10.90
2023-04-24T00:44:28.259Z,10.88
2023-04-24T00:45:29.464Z,10.88
2023-04-24T00:46:28.760Z,10.87
2023-04-24T00:47:28.887Z,10.88
2023-04-24T00:48:28.159Z,10.84
2023-04-24T00:49:29.118Z,10.84
2023-04-24T00:50:28.655Z,10.83
2023-04-24T00:51:28.788Z,10.83
2023-04-24T00:52:28.083Z,10.80
2023-04-24T00:53:28.290Z,10.81
2023-04-24T00:54:28.478Z,10.80
2023-04-24T00:55:28.781Z,10.80
2023-04-24T00:56:27.915Z,10.78
2023-04-24T00:57:28.141Z,10.76
2023-04-24T00:58:28.349Z,10.76
2023-04-24T00:59:28.625Z,10.76
2023-04-24T01:00:27.815Z,10.75
2023-04-24T01:01:28.108Z,10.75
2023-04-24T01:02:29.335Z,10.76
2023-04-24T01:03:28.627Z,10.75
2023-04-24T01:04:28.881Z,10.75
2023-04-24T01:05:27.888Z,10.75
2023-04-24T01:06:28.131Z,10.76
2023-04-24T01:07:28.362Z,10.78
2023-04-24T01:08:29.496Z,10.76
2023-04-24T01:09:28.668Z,10.76
2023-04-24T01:10:27.952Z,10.76
2023-04-24T01:11:28.174Z,10.76
2023-04-24T01:12:28.389Z,10.75
2023-04-24T01:13:27.548Z,10.76
2023-04-24T01:14:27.738Z,10.75
2023-04-24T01:15:27.984Z,10.72
2023-04-24T01:16:28.249Z,10.73
2023-04-24T01:17:28.471Z,10.73
2023-04-24T01:18:27.568Z,10.69
2023-04-24T01:19:28.729Z,10.70
2023-04-24T01:20:28.947Z,10.68
2023-04-24T01:21:28.205Z,10.68
2023-04-24T01:22:27.387Z,10.68
2023-04-24T01:23:28.562Z,10.66
2023-04-24T01:24:28.788Z,10.65
2023-04-24T01:25:28.036Z,10.63
2023-04-24T01:26:28.275Z,10.62
2023-04-24T01:27:27.447Z,10.62
2023-04-24T01:28:27.653Z,10.62
2023-04-24T01:29:27.889Z,10.63
2023-04-24T01:30:28.115Z,10.65
2023-04-24T01:31:28.304Z,10.69
2023-04-24T01:32:27.576Z,10.68
2023-04-24T01:33:27.717Z,10.66
2023-04-24T01:34:27.943Z,10.68
2023-04-24T01:35:28.159Z,10.65
2023-04-24T01:36:27.376Z,10.65
2023-04-24T01:37:27.606Z,10.65
2023-04-24T01:38:27.833Z,10.65
2023-04-24T01:39:28.004Z,10.62
2023-04-24T01:40:27.162Z,10.65
2023-04-24T01:41:28.347Z,10.65
2023-04-24T01:42:27.643Z,10.66
2023-04-24T01:43:27.918Z,10.66
2023-04-24T01:44:29.030Z,10.68
2023-04-24T01:45:28.210Z,10.65
2023-04-24T01:46:28.524Z,10.66
2023-04-24T01:47:27.740Z,10.62
2023-04-24T01:48:27.964Z,10.62
2023-04-24T01:49:27.145Z,10.57
2023-04-24T01:50:28.319Z,10.47
2023-04-24T01:51:28.542Z,10.42
2023-04-24T01:52:27.833Z,10.39
2023-04-24T01:53:27.957Z,10.35
2023-04-24T01:54:27.699Z,10.32
2023-04-24T01:55:28.405Z,10.28
2023-04-24T01:56:27.716Z,10.25
2023-04-24T01:57:26.894Z,10.24
2023-04-24T01:58:27.943Z,10.20
2023-04-24T01:59:28.217Z,10.18
2023-04-24T02:00:28.551Z,10.20
2023-04-24T02:01:28.726Z,10.16
2023-04-24T02:02:29.094Z,10.13
2023-04-24T02:03:28.433Z,10.14
2023-04-24T02:04:28.519Z,10.11
2023-04-24T02:05:28.609Z,10.09
2023-04-24T02:06:26.860Z,10.09
2023-04-24T02:07:28.072Z,10.07
2023-04-24T02:08:27.353Z,10.06
2023-04-24T02:09:27.620Z,10.07
2023-04-24T02:10:26.820Z,10.04
2023-04-24T02:11:27.073Z,10.02
2023-04-24T02:12:28.233Z,10.01
2023-04-24T02:13:28.469Z,9.99
2023-04-24T02:14:27.705Z,9.99
2023-04-24T02:15:27.957Z,9.98
2023-04-24T02:16:28.277Z,9.98
2023-04-24T02:17:27.418Z,9.95
2023-04-24T02:18:27.613Z,9.93
2023-04-24T02:19:27.740Z,9.93
2023-04-24T02:20:27.007Z,9.91
2023-04-24T02:21:28.182Z,9.88
2023-04-24T02:22:27.445Z,9.88
2023-04-24T02:23:26.637Z,9.85
2023-04-24T02:24:26.880Z,9.83
2023-04-24T02:25:27.073Z,9.81
2023-04-24T02:26:28.455Z,9.81
2023-04-24T02:27:26.626Z,9.81
2023-04-24T02:28:26.834Z,9.80
2023-04-24T02:29:27.039Z,9.78
2023-04-24T02:30:28.199Z,9.77
2023-04-24T02:31:26.502Z,9.75
2023-04-24T02:32:26.737Z,9.75
2023-04-24T02:33:26.914Z,9.74
2023-04-24T02:34:27.153Z,9.71
2023-04-24T02:35:27.442Z,9.70
2023-04-24T02:36:27.564Z,9.67
2023-04-24T02:37:26.871Z,9.63
2023-04-24T02:38:27.096Z,9.62
2023-04-24T02:39:27.352Z,9.59
2023-04-24T02:40:27.522Z,9.58
2023-04-24T02:41:27.782Z,9.56
2023-04-24T02:42:28.069Z,9.56
2023-04-24T02:43:26.413Z,9.53
2023-04-24T02:44:27.510Z,9.52
2023-04-24T02:45:26.788Z,9.52
2023-04-24T02:46:28.071Z,9.48
2023-04-24T02:47:26.272Z,9.48
2023-04-24T02:48:26.498Z,9.44
2023-04-24T02:49:27.718Z,9.42
2023-04-24T02:50:27.030Z,9.41
2023-04-24T02:51:26.227Z,9.40
2023-04-24T02:52:26.469Z,9.37
2023-04-24T02:53:26.748Z,9.34
2023-04-24T02:54:27.057Z,9.32
2023-04-24T02:55:26.211Z,9.26
2023-04-24T02:56:26.472Z,9.23
2023-04-24T02:57:26.695Z,9.19
2023-04-24T02:58:26.945Z,9.19
2023-04-24T02:59:26.156Z,9.15
2023-04-24T03:00:26.490Z,9.12
2023-04-24T03:01:26.663Z,9.08
2023-04-24T03:02:27.014Z,9.04
2023-04-24T03:03:26.293Z,9.01
2023-04-24T03:04:27.404Z,9.00
2023-04-24T03:05:26.668Z,8.98
2023-04-24T03:06:26.908Z,8.97
2023-04-24T03:07:26.151Z,8.94
2023-04-24T03:08:26.358Z,8.89
2023-04-24T03:09:26.586Z,8.85
2023-04-24T03:10:26.839Z,8.86
2023-04-24T03:11:26.070Z,8.83
2023-04-24T03:12:26.269Z,8.82
2023-04-24T03:13:26.482Z,8.83
2023-04-24T03:14:26.723Z,8.82
2023-04-24T03:15:25.913Z,8.78
2023-04-24T03:16:26.215Z,8.73
2023-04-24T03:17:26.405Z,8.70
2023-04-24T03:18:27.583Z,8.67
2023-04-24T03:19:25.869Z,8.64
2023-04-24T03:20:26.092Z,8.61
2023-04-24T03:21:26.409Z,8.58
2023-04-24T03:22:26.621Z,8.57
2023-04-24T03:23:26.826Z,8.54
2023-04-24T03:24:26.107Z,8.54
2023-04-24T03:25:26.402Z,8.55
2023-04-24T03:26:26.667Z,8.57
2023-04-24T03:27:25.873Z,8.55
2023-04-24T03:28:26.227Z,8.55
2023-04-24T03:29:26.766Z,8.55
2023-04-24T03:30:26.674Z,8.55
2023-04-24T03:31:26.914Z,8.57
2023-04-24T03:32:26.237Z,8.57
2023-04-24T03:33:26.421Z,8.58
2023-04-24T03:34:26.627Z,8.55
2023-04-24T03:35:25.941Z,8.52
2023-04-24T03:36:27.169Z,8.47
2023-04-24T03:37:26.587Z,8.46
2023-04-24T03:38:25.757Z,8.43
2023-04-24T03:39:26.019Z,8.42
2023-04-24T03:40:26.278Z,8.39
2023-04-24T03:41:27.497Z,8.36
2023-04-24T03:42:25.780Z,8.34
2023-04-24T03:43:26.046Z,8.34
2023-04-24T03:44:26.272Z,8.32
2023-04-24T03:45:25.501Z,8.29
2023-04-24T03:46:25.796Z,8.28
2023-04-24T03:47:26.056Z,8.24
2023-04-24T03:48:26.277Z,8.22
2023-04-24T03:49:25.525Z,8.20
2023-04-24T03:50:26.714Z,8.14
2023-04-24T03:51:25.998Z,8.13
2023-04-24T03:52:27.222Z,8.10
2023-04-24T03:53:25.461Z,8.12
2023-04-24T03:54:25.782Z,8.10
2023-04-24T03:55:26.961Z,8.07
2023-04-24T03:56:27.202Z,8.07
2023-04-24T03:57:25.491Z,8.04
2023-04-24T03:58:25.768Z,8.03
2023-04-24T03:59:26.062Z,8.00
2023-04-24T04:00:26.298Z,8.03
2023-04-24T04:01:26.444Z,8.02
2023-04-24T04:02:26.837Z,8.02
2023-04-24T04:03:26.109Z,8.00
2023-04-24T04:04:26.493Z,7.95
2023-04-24T04:05:25.598Z,7.94
2023-04-24T04:06:25.742Z,7.89
2023-04-24T04:07:26.058Z,7.82
2023-04-24T04:08:25.283Z,7.82
2023-04-24T04:09:25.570Z,7.84
2023-04-24T04:10:25.872Z,7.84
2023-04-24T04:11:26.130Z,7.84
2023-04-24T04:12:25.402Z,7.86
2023-04-24T04:13:26.607Z,7.85
2023-04-24T04:14:25.932Z,7.84
2023-04-24T04:15:25.120Z,7.86
2023-04-24T04:16:25.507Z,7.88
2023-04-24T04:17:26.603Z,7.86
2023-04-24T04:18:25.933Z,7.86
2023-04-24T04:19:25.145Z,7.85
2023-04-24T04:20:25.435Z,7.84
2023-04-24T04:21:25.721Z,7.82
2023-04-24T04:22:26.026Z,7.82
2023-04-24T04:23:26.167Z,7.82
2023-04-24T04:24:26.469Z,7.84
2023-04-24T04:25:25.800Z,7.86
2023-04-24T04:26:25.985Z,7.89
2023-04-24T04:27:25.329Z,7.91
2023-04-24T04:28:25.610Z,7.88
2023-04-24T04:29:26.835Z,7.88
2023-04-24T04:30:25.108Z,7.88
2023-04-24T04:31:26.396Z,7.86
2023-04-24T04:32:25.726Z,7.84
2023-04-24T04:33:24.950Z,7.82
2023-04-24T04:34:26.175Z,7.81
2023-04-24T04:35:26.479Z,7.84
2023-04-24T04:36:26.748Z,7.85
2023-04-24T04:37:25.037Z,7.89
2023-04-24T04:38:25.346Z,7.92
2023-04-24T04:39:25.568Z,7.89
2023-04-24T04:40:24.806Z,7.88
2023-04-24T04:41:25.089Z,7.88
2023-04-24T04:42:25.340Z,7.91
2023-04-24T04:43:25.664Z,7.92
2023-04-24T04:44:24.857Z,7.92
2023-04-24T04:45:25.157Z,7.94
2023-04-24T04:46:25.443Z,7.95
2023-04-24T04:47:25.679Z,8.00
2023-04-24T04:48:24.832Z,8.02
2023-04-24T04:49:25.523Z,8.02
2023-04-24T04:50:25.405Z,7.99
2023-04-24T04:51:24.630Z,8.00
2023-04-24T04:52:25.811Z,8.00
2023-04-24T04:53:26.108Z,8.02
2023-04-24T04:54:25.329Z,8.02
2023-04-24T04:55:25.625Z,8.04
2023-04-24T04:56:25.736Z,8.02
2023-04-24T04:57:25.018Z,8.03
2023-04-24T04:58:25.306Z,8.04
2023-04-24T04:59:24.488Z,8.04
2023-04-24T05:00:24.734Z,8.06
2023-04-24T05:01:25.489Z,8.06
2023-04-24T05:02:25.341Z,8.07
2023-04-24T05:03:24.571Z,8.04
2023-04-24T05:04:24.835Z,8.06
2023-04-24T05:05:24.961Z,8.17
2023-04-24T05:06:25.196Z,8.28
2023-04-24T05:07:24.457Z,8.37
2023-04-24T05:08:27.654Z,8.50
2023-04-24T05:09:24.888Z,8.46
2023-04-24T05:10:25.124Z,8.40
2023-04-24T05:11:25.378Z,8.34
2023-04-24T05:12:24.570Z,8.27
2023-04-24T05:13:38.406Z,8.29
2023-04-24T05:14:26.116Z,8.27
2023-04-24T05:15:25.289Z,8.24
2023-04-24T05:16:24.567Z,8.25
2023-04-24T05:17:24.797Z,8.28
2023-04-24T05:18:25.023Z,8.22
2023-04-24T05:19:25.275Z,8.22
2023-04-24T05:20:24.463Z,8.24
2023-04-24T05:21:24.704Z,8.25
2023-04-24T05:22:24.952Z,8.25
2023-04-24T05:23:25.230Z,8.27
2023-04-24T05:24:24.478Z,8.25
2023-04-24T05:25:24.704Z,8.25
2023-04-24T05:26:24.927Z,8.24
2023-04-24T05:27:25.103Z,8.25
2023-04-24T05:28:24.397Z,8.29
2023-04-24T05:29:24.699Z,8.29
2023-04-24T05:30:24.903Z,8.29
2023-04-24T05:31:24.175Z,8.29
2023-04-24T05:32:24.409Z,8.25
2023-04-24T05:33:25.532Z,8.27
2023-04-24T05:34:24.843Z,8.28
2023-04-24T05:35:25.090Z,8.31
2023-04-24T05:36:24.307Z,8.34
2023-04-24T05:37:24.544Z,8.32
2023-04-24T05:38:25.780Z,8.31
2023-04-24T05:39:24.954Z,8.34
2023-04-24T05:40:24.299Z,8.34
2023-04-24T05:41:25.495Z,8.34
2023-04-24T05:42:25.712Z,8.31
2023-04-24T05:43:24.905Z,8.34
2023-04-24T05:44:24.221Z,8.36
2023-04-24T05:45:24.569Z,8.36
2023-04-24T05:46:25.721Z,8.37
2023-04-24T05:47:24.938Z,8.42
2023-04-24T05:48:25.125Z,8.40
2023-04-24T05:49:24.461Z,8.40
2023-04-24T05:50:24.705Z,8.43
2023-04-24T05:51:23.928Z,8.43
2023-04-24T05:52:24.200Z,8.45
2023-04-24T05:53:25.415Z,8.45
2023-04-24T05:54:25.700Z,8.47
2023-04-24T05:55:23.960Z,8.47
2023-04-24T05:56:25.295Z,8.49
2023-04-24T05:57:24.526Z,8.50
2023-04-24T05:58:23.780Z,8.50
2023-04-24T05:59:25.013Z,8.52
2023-04-24T06:00:25.276Z,8.49
2023-04-24T06:01:24.579Z,8.54
2023-04-24T06:02:23.963Z,8.55
2023-04-24T06:03:25.103Z,8.57
2023-04-24T06:04:25.753Z,8.57
2023-04-24T06:05:24.620Z,8.58
2023-04-24T06:06:24.722Z,8.61
2023-04-24T06:07:24.169Z,8.61
2023-04-24T06:08:24.293Z,8.64
2023-04-24T06:09:25.540Z,8.63
2023-04-24T06:10:23.761Z,8.67
2023-04-24T06:11:24.023Z,8.70
2023-04-24T06:12:24.296Z,8.68
2023-04-24T06:13:24.546Z,8.71
2023-04-24T06:14:24.728Z,8.71
2023-04-24T06:15:24.076Z,8.71
2023-04-24T06:16:25.273Z,8.70
2023-04-24T06:17:24.513Z,8.70
2023-04-24T06:18:23.808Z,8.68
2023-04-24T06:19:24.054Z,8.65
2023-04-24T06:20:24.347Z,8.68
2023-04-24T06:21:23.560Z,8.71
2023-04-24T06:22:23.807Z,8.71
2023-04-24T06:23:24.103Z,8.71
2023-04-24T06:24:24.372Z,8.71
2023-04-24T06:25:23.605Z,8.73
2023-04-24T06:26:23.863Z,8.75
2023-04-24T06:27:25.044Z,8.78
2023-04-24T06:28:24.388Z,8.78
2023-04-24T06:29:24.556Z,8.78
2023-04-24T06:30:23.877Z,8.80
2023-04-24T06:31:24.976Z,8.80
2023-04-24T06:32:23.647Z,8.78
2023-04-24T06:33:24.074Z,8.79
2023-04-24T06:34:23.960Z,8.85
2023-04-24T06:35:24.145Z,8.85
2023-04-24T06:36:23.346Z,8.86
2023-04-24T06:37:23.588Z,8.85
2023-04-24T06:38:23.846Z,8.85
2023-04-24T06:39:24.115Z,8.88
2023-04-24T06:40:23.365Z,8.91
2023-04-24T06:41:23.574Z,8.89
2023-04-24T06:42:23.810Z,8.91
2023-04-24T06:43:24.077Z,8.93
2023-04-24T06:44:23.306Z,8.93
2023-04-24T06:45:23.577Z,8.89
2023-04-24T06:46:23.807Z,8.93
2023-04-24T06:47:24.058Z,8.94
2023-04-24T06:48:23.264Z,8.91
2023-04-24T06:49:23.457Z,8.91
2023-04-24T06:50:23.726Z,8.89
2023-04-24T06:51:23.981Z,8.86
2023-04-24T06:52:24.131Z,8.83
2023-04-24T06:53:24.407Z,8.80
2023-04-24T06:54:24.703Z,8.78
2023-04-24T06:55:23.954Z,8.78
2023-04-24T06:56:23.506Z,8.80
2023-04-24T06:57:23.428Z,8.78
2023-04-24T06:58:23.682Z,8.78
2023-04-24T06:59:22.896Z,8.75
2023-04-24T07:00:24.149Z,8.78
2023-04-24T07:01:23.437Z,8.76
2023-04-24T07:02:23.776Z,8.76
2023-04-24T07:03:22.975Z,8.78
2023-04-24T07:04:23.394Z,8.76
2023-04-24T07:05:23.393Z,8.73
2023-04-24T07:06:23.785Z,8.75
2023-04-24T07:07:25.501Z,8.70
2023-04-24T07:08:23.599Z,8.71
2023-04-24T07:09:23.374Z,8.71
2023-04-24T07:10:23.602Z,8.73
2023-04-24T07:11:23.741Z,8.75
2023-04-24T07:12:23.999Z,8.71
2023-04-24T07:13:23.323Z,8.73
2023-04-24T07:14:23.680Z,8.70
2023-04-24T07:15:23.766Z,8.70
2023-04-24T07:16:23.084Z,8.71
2023-04-24T07:17:23.364Z,8.67
2023-04-24T07:18:23.568Z,8.65
2023-04-24T07:19:22.805Z,8.63
2023-04-24T07:20:23.128Z,8.60
2023-04-24T07:21:23.292Z,8.57
2023-04-24T07:22:23.537Z,8.55
2023-04-24T07:23:22.795Z,8.52
2023-04-24T07:24:24.862Z,8.46
2023-04-24T07:25:23.294Z,8.42
2023-04-24T07:26:23.538Z,8.39
2023-04-24T07:27:22.764Z,8.39
2023-04-24T07:28:23.032Z,8.37
2023-04-24T07:29:23.267Z,8.34
2023-04-24T07:30:23.546Z,8.31
2023-04-24T07:31:23.016Z,8.29
2023-04-24T07:32:23.020Z,8.27
2023-04-24T07:33:23.284Z,8.27
2023-04-24T07:34:22.462Z,8.24
2023-04-24T07:35:22.716Z,8.22
2023-04-24T07:36:22.977Z,8.22
2023-04-24T07:37:23.199Z,8.25
2023-04-24T07:38:23.358Z,8.25
2023-04-24T07:39:23.628Z,8.22
2023-04-24T07:40:23.975Z,8.21
2023-04-24T07:41:24.951Z,8.21
2023-04-24T07:42:22.437Z,8.24
2023-04-24T07:43:22.547Z,8.25
2023-04-24T07:44:22.807Z,8.24
2023-04-24T07:45:23.061Z,8.21
2023-04-24T07:46:23.293Z,8.21
2023-04-24T07:47:22.609Z,8.20
2023-04-24T07:48:22.804Z,8.21
2023-04-24T07:49:23.028Z,8.21
2023-04-24T07:50:22.289Z,8.20
2023-04-24T07:51:22.574Z,8.21
2023-04-24T07:52:22.803Z,8.24
2023-04-24T07:53:23.066Z,8.24
2023-04-24T07:54:22.287Z,8.24
2023-04-24T07:55:24.653Z,8.24
2023-04-24T07:56:22.798Z,8.24
2023-04-24T07:57:23.081Z,8.22
2023-04-24T07:58:22.343Z,8.24
2023-04-24T07:59:22.609Z,8.25
2023-04-24T08:00:22.901Z,8.24
2023-04-24T08:01:23.104Z,8.24
2023-04-24T08:02:22.363Z,8.28
2023-04-24T08:03:22.829Z,8.27
2023-04-24T08:04:22.954Z,8.24
2023-04-24T08:05:23.300Z,8.27
2023-04-24T08:06:23.346Z,8.29
2023-04-24T08:07:22.645Z,8.28
2023-04-24T08:08:22.882Z,8.28
2023-04-24T08:09:22.259Z,8.28
2023-04-24T08:10:22.384Z,8.27
2023-04-24T08:11:24.862Z,8.25
2023-04-24T08:12:22.909Z,8.25
2023-04-24T08:13:22.088Z,8.24
2023-04-24T08:14:22.377Z,8.22
2023-04-24T08:15:22.665Z,8.20
2023-04-24T08:16:22.936Z,8.22
2023-04-24T08:17:22.054Z,8.21
2023-04-24T08:18:22.356Z,8.20
2023-04-24T08:19:22.563Z,8.20
2023-04-24T08:20:22.878Z,8.14
2023-04-24T08:21:22.030Z,8.10
2023-04-24T08:22:22.268Z,8.07
2023-04-24T08:23:22.578Z,8.03
2023-04-24T08:24:22.806Z,7.99
2023-04-24T08:25:22.079Z,7.95
2023-04-24T08:26:22.234Z,7.92
2023-04-24T08:27:22.489Z,7.99
2023-04-24T08:28:22.730Z,7.94
2023-04-24T08:29:21.946Z,7.89
2023-04-24T08:30:22.274Z,7.84
2023-04-24T08:31:22.476Z,7.81
2023-04-24T08:32:21.686Z,7.81
2023-04-24T08:33:21.998Z,7.79
2023-04-24T08:34:22.188Z,7.73
2023-04-24T08:35:22.453Z,7.71
2023-04-24T08:36:21.785Z,7.73
2023-04-24T08:37:21.885Z,7.73
2023-04-24T08:38:24.143Z,7.70
2023-04-24T08:39:22.388Z,7.67
2023-04-24T08:40:21.594Z,7.67
2023-04-24T08:41:21.920Z,7.63
2023-04-24T08:42:22.157Z,7.63
2023-04-24T08:43:23.356Z,7.66
2023-04-24T08:44:21.642Z,7.60
2023-04-24T08:45:22.891Z,7.58
2023-04-24T08:46:22.175Z,7.58
2023-04-24T08:47:23.233Z,7.60
2023-04-24T08:48:30.344Z,7.58
2023-04-24T08:49:22.888Z,7.57
2023-04-24T08:50:22.157Z,7.55
2023-04-24T08:51:23.467Z,7.54
2023-04-24T08:52:21.680Z,7.51
2023-04-24T08:53:22.875Z,7.50
2023-04-24T08:54:23.161Z,7.42
2023-04-24T08:55:22.393Z,7.41
2023-04-24T08:56:22.665Z,7.37
2023-04-24T08:57:21.995Z,7.27
2023-04-24T08:58:22.262Z,7.18
2023-04-24T08:59:21.500Z,6.97
2023-04-24T09:00:21.780Z,6.83
2023-04-24T09:01:22.029Z,6.78
2023-04-24T09:02:22.429Z,6.75
2023-04-24T09:03:22.647Z,6.65
2023-04-24T09:04:22.065Z,6.60
2023-04-24T09:05:22.070Z,6.54
2023-04-24T09:06:21.342Z,6.50
2023-04-24T09:07:21.639Z,6.48
2023-04-24T09:08:21.966Z,6.40
2023-04-24T09:09:22.161Z,6.40
2023-04-24T09:10:21.459Z,6.35
2023-04-24T09:11:22.631Z,6.36
2023-04-24T09:12:22.018Z,6.35
2023-04-24T09:13:21.268Z,6.35
2023-04-24T09:14:21.943Z,6.36
2023-04-24T09:15:21.838Z,6.36
2023-04-24T09:16:22.133Z,6.32
2023-04-24T09:17:21.383Z,6.35
2023-04-24T09:18:21.688Z,6.40
2023-04-24T09:19:21.904Z,6.43
2023-04-24T09:20:21.226Z,6.42
2023-04-24T09:21:21.445Z,6.43
2023-04-24T09:22:21.699Z,6.42
2023-04-24T09:23:22.947Z,6.48
2023-04-24T09:24:21.222Z,6.51
2023-04-24T09:25:21.579Z,6.51
2023-04-24T09:26:22.786Z,6.50
2023-04-24T09:27:21.039Z,6.51
2023-04-24T09:28:22.291Z,6.51
2023-04-24T09:29:21.702Z,6.51
2023-04-24T09:30:21.859Z,6.51
2023-04-24T09:31:21.204Z,6.55
2023-04-24T09:32:22.608Z,6.55
2023-04-24T09:33:21.689Z,6.53
2023-04-24T09:34:20.916Z,6.55
2023-04-24T09:35:21.202Z,6.57
2023-04-24T09:36:21.580Z,6.58
2023-04-24T09:37:21.814Z,6.58
2023-04-24T09:38:22.049Z,6.63
2023-04-24T09:39:21.462Z,6.63
2023-04-24T09:40:22.661Z,6.61
2023-04-24T09:41:21.857Z,6.63
2023-04-24T09:42:21.343Z,6.64
2023-04-24T09:43:22.454Z,6.65
2023-04-24T09:44:21.755Z,6.68
2023-04-24T09:45:21.011Z,6.65
2023-04-24T09:46:21.344Z,6.71
2023-04-24T09:47:21.636Z,6.65
2023-04-24T09:48:21.771Z,6.64
2023-04-24T09:49:21.075Z,6.69
2023-04-24T09:50:21.328Z,6.68
2023-04-24T09:51:21.708Z,6.64
2023-04-24T09:52:21.764Z,6.65
2023-04-24T09:53:21.186Z,6.63
2023-04-24T09:54:21.392Z,6.65
2023-04-24T09:55:20.635Z,6.68
2023-04-24T09:56:20.905Z,6.69
2023-04-24T09:57:21.193Z,6.61
2023-04-24T09:58:21.523Z,6.58
2023-04-24T09:59:20.786Z,6.61
2023-04-24T10:00:21.020Z,6.58
2023-04-24T10:01:21.325Z,6.55
2023-04-24T10:02:20.619Z,6.50
2023-04-24T10:03:20.884Z,6.57
2023-04-24T10:04:21.228Z,6.60
2023-04-24T10:05:21.424Z,6.63
2023-04-24T10:06:20.676Z,6.69
2023-04-24T10:07:20.954Z,6.72
2023-04-24T10:08:21.232Z,6.75
2023-04-24T10:09:20.486Z,6.75
2023-04-24T10:10:20.849Z,6.79
2023-04-24T10:11:21.118Z,6.82
2023-04-24T10:12:20.334Z,6.82
2023-04-24T10:13:20.716Z,6.82
2023-04-24T10:14:21.021Z,6.79
2023-04-24T10:15:21.258Z,6.81
2023-04-24T10:16:20.548Z,6.86
2023-04-24T10:17:20.790Z,6.93
2023-04-24T10:18:21.059Z,6.91
2023-04-24T10:19:21.418Z,6.90
2023-04-24T10:20:20.519Z,6.90
2023-04-24T10:21:20.909Z,6.91
2023-04-24T10:22:21.109Z,6.93
2023-04-24T10:23:20.395Z,7.00
2023-04-24T10:24:20.605Z,7.01
2023-04-24T10:25:21.831Z,7.00
2023-04-24T10:26:21.151Z,7.00
2023-04-24T10:27:20.398Z,7.00
2023-04-24T10:28:21.626Z,7.01
2023-04-24T10:29:20.928Z,7.05
2023-04-24T10:30:20.201Z,7.07
2023-04-24T10:31:20.456Z,7.11
2023-04-24T10:32:20.798Z,7.11
2023-04-24T10:33:21.002Z,7.15
2023-04-24T10:34:20.218Z,7.14
2023-04-24T10:35:21.531Z,7.18
2023-04-24T10:36:20.830Z,7.16
2023-04-24T10:37:20.070Z,7.18
2023-04-24T10:38:21.329Z,7.18
2023-04-24T10:39:27.437Z,7.18
2023-04-24T10:40:22.007Z,7.16
2023-04-24T10:41:21.218Z,7.14
2023-04-24T10:42:20.565Z,7.23
2023-04-24T10:43:20.765Z,7.24
2023-04-24T10:44:20.066Z,7.23
2023-04-24T10:45:21.314Z,7.27
2023-04-24T10:46:20.610Z,7.29
2023-04-24T10:47:20.875Z,7.27
2023-04-24T10:48:20.165Z,7.32
2023-04-24T10:49:20.335Z,7.39
2023-04-24T10:50:21.683Z,7.45
2023-04-24T10:51:20.895Z,7.58
2023-04-24T10:52:20.087Z,7.62
2023-04-24T10:53:20.482Z,7.62
2023-04-24T10:54:20.619Z,7.57
2023-04-24T10:55:20.793Z,7.58
2023-04-24T10:56:21.047Z,7.51
2023-04-24T10:57:21.388Z,7.52
2023-04-24T10:58:20.651Z,7.52
2023-04-24T10:59:20.762Z,7.44
2023-04-24T11:00:20.148Z,7.47
2023-04-24T11:01:21.376Z,7.45
2023-04-24T11:02:20.829Z,7.51
2023-04-24T11:03:20.035Z,7.52
2023-04-24T11:04:21.406Z,7.48
2023-04-24T11:05:20.525Z,7.47
2023-04-24T11:06:20.752Z,7.45
2023-04-24T11:07:21.056Z,7.47
2023-04-24T11:08:20.329Z,7.44
2023-04-24T11:09:22.176Z,7.47
2023-04-24T11:10:19.865Z,7.47
2023-04-24T11:11:20.134Z,7.48
2023-04-24T11:12:20.567Z,7.51
2023-04-24T11:13:19.655Z,7.54
2023-04-24T11:14:19.942Z,7.58
2023-04-24T11:15:20.253Z,7.62
2023-04-24T11:16:20.542Z,7.63
2023-04-24T11:17:19.735Z,7.63
2023-04-24T11:18:20.012Z,7.66
2023-04-24T11:19:20.259Z,7.70
2023-04-24T11:21:21.401Z,7.67
2023-04-24T11:22:21.071Z,7.63
2023-04-24T11:23:20.291Z,7.66
2023-04-24T11:24:20.481Z,7.70
2023-04-24T11:25:20.767Z,7.71
2023-04-24T11:26:20.063Z,7.76
2023-04-24T11:27:20.347Z,7.76
2023-04-24T11:28:20.516Z,7.81
2023-04-24T11:29:21.537Z,7.76
2023-04-24T11:30:20.164Z,7.85
2023-04-24T11:31:19.395Z,7.92
2023-04-24T11:32:19.799Z,8.00
2023-04-24T11:33:19.966Z,8.14
2023-04-24T11:34:20.131Z,8.21
2023-04-24T11:35:19.358Z,8.29
2023-04-24T11:36:19.672Z,8.29
2023-04-24T11:37:20.975Z,8.29
2023-04-24T11:38:24.522Z,8.22
2023-04-24T11:39:19.384Z,8.17
2023-04-24T11:40:20.601Z,8.18
2023-04-24T11:41:19.932Z,8.13
2023-04-24T11:42:21.114Z,8.10
2023-04-24T11:43:19.401Z,8.14
2023-04-24T11:44:19.637Z,8.20
2023-04-24T11:45:19.932Z,8.18
2023-04-24T11:46:20.196Z,8.17
2023-04-24T11:47:20.448Z,8.18
2023-04-24T11:48:22.805Z,8.18
2023-04-24T11:49:19.979Z,8.20
2023-04-24T11:50:20.182Z,8.25
2023-04-24T11:51:20.447Z,8.27
2023-04-24T11:52:20.771Z,8.36
2023-04-24T11:53:20.058Z,8.40
2023-04-24T11:54:19.276Z,8.46
2023-04-24T11:55:19.608Z,8.58
2023-04-24T11:56:19.801Z,8.63
2023-04-24T11:57:20.443Z,8.68
2023-04-24T11:58:19.344Z,8.80
2023-04-24T11:59:19.556Z,8.83
2023-04-24T12:00:19.939Z,8.88
2023-04-24T12:01:19.364Z,8.96
2023-04-24T12:02:19.337Z,8.97
2023-04-24T12:03:19.758Z,9.01
2023-04-24T12:04:20.029Z,9.01
2023-04-24T12:05:19.275Z,8.85
2023-04-24T12:06:19.436Z,8.76
2023-04-24T12:07:20.534Z,8.76
2023-04-24T12:08:19.848Z,8.71
2023-04-24T12:09:19.118Z,8.73
2023-04-24T12:10:19.457Z,8.71
2023-04-24T12:11:19.613Z,8.71
2023-04-24T12:12:18.963Z,8.63
2023-04-24T12:13:19.260Z,8.64
2023-04-24T12:14:21.388Z,8.63
2023-04-24T12:15:19.694Z,8.68
2023-04-24T12:16:18.994Z,8.57
2023-04-24T12:17:20.177Z,8.70
2023-04-24T12:18:19.612Z,8.73
2023-04-24T12:19:19.687Z,8.75
2023-04-24T12:20:18.818Z,8.76
2023-04-24T12:21:21.363Z,8.79
2023-04-24T12:22:19.355Z,8.78
2023-04-24T12:23:19.633Z,8.78
2023-04-24T12:24:18.839Z,8.78
2023-04-24T12:25:18.763Z,8.79
2023-04-24T12:26:19.027Z,8.78
2023-04-24T12:27:19.306Z,8.79
2023-04-24T12:28:19.533Z,8.79
2023-04-24T12:29:19.696Z,8.85
2023-04-24T12:30:19.093Z,8.93
2023-04-24T12:31:19.268Z,8.98
2023-04-24T12:32:19.517Z,9.04
2023-04-24T12:33:18.824Z,9.06
2023-04-24T12:34:19.014Z,9.16
2023-04-24T12:35:19.298Z,9.19
2023-04-24T12:36:18.585Z,9.19
2023-04-24T12:37:18.786Z,9.20
2023-04-24T12:38:19.048Z,9.17
2023-04-24T12:39:19.349Z,9.15
2023-04-24T12:40:19.499Z,9.16
2023-04-24T12:41:18.771Z,9.13
2023-04-24T12:42:19.028Z,9.12
2023-04-24T12:43:19.349Z,9.06
2023-04-24T12:44:18.644Z,9.12
2023-04-24T12:45:19.725Z,9.16
2023-04-24T12:46:22.400Z,9.23
2023-04-24T12:47:19.359Z,9.24
2023-04-24T12:48:18.614Z,9.30
2023-04-24T12:49:18.910Z,9.32
2023-04-24T12:50:19.070Z,9.42
2023-04-24T12:51:19.301Z,9.52
2023-04-24T12:52:18.536Z,9.62
2023-04-24T12:53:18.779Z,9.67
2023-04-24T12:54:19.083Z,9.59
2023-04-24T12:55:19.304Z,9.52
2023-04-24T12:56:18.518Z,9.49
2023-04-24T12:57:18.792Z,9.50
2023-04-24T12:58:19.015Z,9.50
2023-04-24T12:59:18.269Z,9.52
2023-04-24T13:00:20.209Z,9.50
2023-04-24T13:01:18.823Z,9.53
2023-04-24T13:02:20.110Z,9.50
2023-04-24T13:03:18.419Z,9.45
2023-04-24T13:04:18.657Z,9.41
2023-04-24T13:05:18.748Z,9.41
2023-04-24T13:06:20.040Z,9.44
2023-04-24T13:07:18.241Z,9.52
2023-04-24T13:08:18.497Z,9.52
2023-04-24T13:09:18.727Z,9.52
2023-04-24T13:10:19.024Z,9.59
2023-04-24T13:11:18.271Z,9.67
2023-04-24T13:12:18.536Z,9.75
2023-04-24T13:13:18.773Z,9.81
2023-04-24T13:14:17.985Z,9.85
2023-04-24T13:15:19.278Z,9.77